createdAt,value
2022-10-17T00:00:43.739Z,99.90
2022-10-17T00:03:11.046Z,99.90
2022-10-17T00:05:45.889Z,99.90
2022-10-17T00:08:14.259Z,99.90
2022-10-17T00:10:41.894Z,99.90
2022-10-17T00:13:09.243Z,99.90
2022-10-17T00:15:36.192Z,99.90
2022-10-17T00:18:03.606Z,99.90
2022-10-17T00:20:30.637Z,99.90
2022-10-17T00:22:57.630Z,99.90
2022-10-17T00:25:24.552Z,99.90
2022-10-17T00:27:51.424Z,99.90
2022-10-17T00:30:18.402Z,99.90
2022-10-17T00:32:45.284Z,99.90
2022-10-17T00:35:12.198Z,99.90
2022-10-17T00:37:39.142Z,99.90
2022-10-17T00:40:07.767Z,99.90
2022-10-17T00:42:35.023Z,99.90
2022-10-17T00:45:08.179Z,99.90
2022-10-17T00:47:36.702Z,99.90
2022-10-17T00:50:06.721Z,99.90
2022-10-17T00:52:34.194Z,99.90
2022-10-17T00:55:11.699Z,99.90
2022-10-17T00:57:39.802Z,99.90
2022-10-17T01:00:09.139Z,99.90
2022-10-17T01:02:36.774Z,99.90
2022-10-17T01:05:04.160Z,99.90
2022-10-17T01:07:34.690Z,99.90
2022-10-17T01:10:05.431Z,99.90
2022-10-17T01:13:09.417Z,99.90
2022-10-17T01:15:57.101Z,99.90
2022-10-17T01:18:27.007Z,99.90
2022-10-17T01:21:16.588Z,99.90
2022-10-17T01:23:49.178Z,99.90
2022-10-17T01:26:37.555Z,99.90
2022-10-17T01:29:36.665Z,99.90
2022-10-17T01:32:14.699Z,99.90
2022-10-17T01:35:20.795Z,99.90
2022-10-17T01:37:58.140Z,99.90
2022-10-17T01:40:45.362Z,99.90
2022-10-17T01:43:20.969Z,99.90
2022-10-17T01:45:59.035Z,99.90
2022-10-17T01:48:32.520Z,99.90
2022-10-17T01:51:06.074Z,99.90
2022-10-17T01:53:37.645Z,99.90
2022-10-17T01:56:07.085Z,99.90
2022-10-17T01:58:53.487Z,99.90
2022-10-17T02:01:22.229Z,99.90
2022-10-17T02:03:51.213Z,99.90
2022-10-17T02:06:18.172Z,99.90
2022-10-17T02:08:50.437Z,99.90
2022-10-17T02:11:19.129Z,99.90
2022-10-17T02:14:32.088Z,99.90
2022-10-17T02:17:06.672Z,99.90
2022-10-17T02:19:51.640Z,99.90
2022-10-17T02:22:36.314Z,99.90
2022-10-17T02:25:22.038Z,99.90
2022-10-17T02:28:00.928Z,99.90
2022-10-17T02:30:45.957Z,99.90
2022-10-17T02:33:25.087Z,99.90
2022-10-17T02:35:55.195Z,99.90
2022-10-17T02:38:22.961Z,99.90
2022-10-17T02:40:51.902Z,99.90
2022-10-17T02:43:20.247Z,99.90
2022-10-17T02:45:47.796Z,99.90
2022-10-17T02:48:38.862Z,99.90
2022-10-17T02:51:37.037Z,99.90
2022-10-17T02:54:03.838Z,99.90
2022-10-17T02:56:36.422Z,99.90
2022-10-17T02:59:06.151Z,99.90
2022-10-17T03:01:33.177Z,99.90
2022-10-17T03:04:11.798Z,99.90
2022-10-17T03:06:39.672Z,99.90
2022-10-17T03:09:06.872Z,99.90
2022-10-17T03:11:34.099Z,99.90
2022-10-17T03:14:00.901Z,99.90
2022-10-17T03:16:27.742Z,99.90
2022-10-17T03:18:54.598Z,99.90
2022-10-17T03:21:21.555Z,99.90
2022-10-17T03:23:48.432Z,99.90
2022-10-17T03:26:15.245Z,99.90
2022-10-17T03:28:42.116Z,99.90
2022-10-17T03:31:10.885Z,99.90
2022-10-17T03:33:37.815Z,99.90
2022-10-17T03:36:10.192Z,99.90
2022-10-17T03:38:37.592Z,99.90
2022-10-17T03:41:05.264Z,99.90
2022-10-17T03:43:32.370Z,99.90
2022-10-17T03:46:00.590Z,99.90
2022-10-17T03:48:28.999Z,99.90
2022-10-17T03:51:01.240Z,99.90
2022-10-17T03:53:28.650Z,99.90
2022-10-17T03:55:55.920Z,99.90
2022-10-17T03:58:22.950Z,99.90
2022-10-17T04:00:49.745Z,99.90
2022-10-17T04:03:17.423Z,99.90
2022-10-17T04:05:44.357Z,99.90
2022-10-17T04:08:11.184Z,99.90
2022-10-17T04:10:37.983Z,99.90
2022-10-17T04:13:06.494Z,99.90
2022-10-17T04:15:33.450Z,99.90
2022-10-17T04:18:00.315Z,99.90
2022-10-17T04:20:27.265Z,99.90
2022-10-17T04:22:54.100Z,99.90
2022-10-17T04:25:20.955Z,99.90
2022-10-17T04:27:49.075Z,99.90
2022-10-17T04:30:16.296Z,99.90
2022-10-17T04:32:43.211Z,99.90
2022-10-17T04:35:10.035Z,99.90
2022-10-17T04:37:36.859Z,99.90
2022-10-17T04:40:03.929Z,99.90
2022-10-17T04:42:30.954Z,99.90
2022-10-17T04:44:58.010Z,99.90
2022-10-17T04:47:24.823Z,99.90
2022-10-17T04:49:51.688Z,99.90
2022-10-17T04:52:18.510Z,99.90
2022-10-17T04:54:45.300Z,99.90
2022-10-17T04:57:12.436Z,99.90
2022-10-17T04:59:39.219Z,99.90
2022-10-17T05:02:06.206Z,99.90
2022-10-17T05:04:33.021Z,99.90
2022-10-17T05:06:59.856Z,99.90
2022-10-17T05:09:27.175Z,99.90
2022-10-17T05:11:54.096Z,99.90
2022-10-17T05:14:20.960Z,99.90
2022-10-17T05:16:47.780Z,99.90
2022-10-17T05:19:14.620Z,99.90
2022-10-17T05:21:41.394Z,99.90
2022-10-17T05:24:09.784Z,99.90
2022-10-17T05:26:36.671Z,99.90
2022-10-17T05:29:04.403Z,99.90
2022-10-17T05:31:31.823Z,99.90
2022-10-17T05:34:02.883Z,99.90
2022-10-17T05:36:29.883Z,99.90
2022-10-17T05:38:56.682Z,99.90
2022-10-17T05:41:23.462Z,99.90
2022-10-17T05:43:50.852Z,99.90
2022-10-17T05:46:17.801Z,99.90
2022-10-17T05:48:44.740Z,99.90
2022-10-17T05:51:11.705Z,99.90
2022-10-17T05:53:40.756Z,99.90
2022-10-17T05:56:09.913Z,99.90
2022-10-17T05:58:49.927Z,99.90
2022-10-17T06:01:18.004Z,99.90
2022-10-17T06:03:44.817Z,99.90
2022-10-17T06:06:13.480Z,99.90
2022-10-17T06:08:40.484Z,99.90
2022-10-17T06:11:10.073Z,99.90
2022-10-17T06:13:38.963Z,99.90
2022-10-17T06:16:06.605Z,99.90
2022-10-17T06:18:33.924Z,99.90
2022-10-17T06:21:08.940Z,99.90
2022-10-17T06:23:35.809Z,99.90
2022-10-17T06:26:04.180Z,99.90
2022-10-17T06:28:31.709Z,99.90
2022-10-17T06:30:58.560Z,99.90
2022-10-17T06:33:25.418Z,99.90
2022-10-17T06:35:56.803Z,99.90
2022-10-17T06:38:23.657Z,99.90
2022-10-17T06:40:50.495Z,99.90
2022-10-17T06:43:17.299Z,99.90
2022-10-17T06:45:46.839Z,99.90
2022-10-17T06:48:14.454Z,99.90
2022-10-17T06:50:41.468Z,99.90
2022-10-17T06:53:08.309Z,99.90
2022-10-17T06:55:35.169Z,99.90
2022-10-17T06:58:01.993Z,99.90
2022-10-17T07:00:28.958Z,99.90
2022-10-17T07:02:55.774Z,99.90
2022-10-17T07:05:22.589Z,99.90
2022-10-17T07:07:51.712Z,99.90
2022-10-17T07:10:18.822Z,99.90
2022-10-17T07:12:45.910Z,99.90
2022-10-17T07:15:13.158Z,99.90
2022-10-17T07:17:40.007Z,99.90
2022-10-17T07:20:07.468Z,99.90
2022-10-17T07:22:34.350Z,99.90
2022-10-17T07:25:01.203Z,99.90
2022-10-17T07:27:28.474Z,99.90
2022-10-17T07:29:55.436Z,99.90
2022-10-17T07:32:22.281Z,99.90
2022-10-17T07:34:49.097Z,99.90
2022-10-17T07:37:15.996Z,99.90
2022-10-17T07:39:42.869Z,99.90
2022-10-17T07:42:10.695Z,99.90
2022-10-17T07:44:37.492Z,99.90
2022-10-17T07:47:04.405Z,99.90
2022-10-17T07:49:31.380Z,99.90
2022-10-17T07:51:58.328Z,99.90
2022-10-17T07:54:25.368Z,99.90
2022-10-17T07:56:52.195Z,99.90
2022-10-17T07:59:19.439Z,99.90
2022-10-17T08:01:46.336Z,99.90
2022-10-17T08:04:13.225Z,99.90
2022-10-17T08:06:40.023Z,99.90
2022-10-17T08:09:06.875Z,99.90
2022-10-17T08:11:33.756Z,99.90
2022-10-17T08:14:00.545Z,99.90
2022-10-17T08:16:27.413Z,99.90
2022-10-17T08:18:54.264Z,99.90
2022-10-17T08:21:21.043Z,99.90
2022-10-17T08:23:47.886Z,99.90
2022-10-17T08:26:17.321Z,99.90
2022-10-17T08:28:44.387Z,99.90
2022-10-17T08:31:14.294Z,99.90
2022-10-17T08:33:42.097Z,99.90
2022-10-17T08:36:09.856Z,99.90
2022-10-17T08:38:43.144Z,99.90
2022-10-17T08:41:22.357Z,99.90
2022-10-17T08:44:20.053Z,99.90
2022-10-17T08:46:50.137Z,99.90
2022-10-17T08:49:47.287Z,99.90
2022-10-17T08:52:32.593Z,99.90
2022-10-17T08:54:59.783Z,99.90
2022-10-17T08:57:28.981Z,99.90
2022-10-17T08:59:56.896Z,99.90
2022-10-17T09:02:39.830Z,99.90
2022-10-17T09:05:27.206Z,99.90
2022-10-17T09:08:00.067Z,99.90
2022-10-17T09:10:32.462Z,99.90
2022-10-17T09:13:38.763Z,99.90
2022-10-17T09:16:31.798Z,99.90
2022-10-17T09:19:10.333Z,99.90
2022-10-17T09:21:44.967Z,99.90
2022-10-17T09:24:32.054Z,99.90
2022-10-17T09:26:59.262Z,99.90
2022-10-17T09:29:29.699Z,99.90
2022-10-17T09:32:08.801Z,99.90
2022-10-17T09:34:35.702Z,99.90
2022-10-17T09:37:03.050Z,99.90
2022-10-17T09:39:33.228Z,99.90
2022-10-17T09:42:01.505Z,99.90
2022-10-17T09:44:40.019Z,99.90
2022-10-17T09:47:09.849Z,99.90
2022-10-17T09:49:39.865Z,99.90
2022-10-17T09:52:19.118Z,98.80
2022-10-17T09:54:57.120Z,98.20
2022-10-17T09:57:24.285Z,95.10
2022-10-17T09:59:59.376Z,93.60
2022-10-17T10:02:29.042Z,94.40
2022-10-17T10:05:18.325Z,95.30
2022-10-17T10:08:03.490Z,96.10
2022-10-17T10:10:32.193Z,95.60
2022-10-17T10:13:16.260Z,95.00
2022-10-17T10:15:45.475Z,92.20
2022-10-17T10:18:36.678Z,91.50
2022-10-17T10:21:11.187Z,92.10
2022-10-17T10:23:40.670Z,91.10
2022-10-17T10:26:29.896Z,90.80
2022-10-17T10:29:00.762Z,90.60
2022-10-17T10:31:37.243Z,89.90
2022-10-17T10:34:19.069Z,89.60
2022-10-17T10:37:07.329Z,89.80
2022-10-17T10:40:15.071Z,88.70
2022-10-17T10:42:42.595Z,88.90
2022-10-17T10:45:46.827Z,87.20
2022-10-17T10:48:25.482Z,88.30
2022-10-17T10:51:01.083Z,86.20
2022-10-17T10:54:03.780Z,85.90
2022-10-17T10:56:44.497Z,85.60
2022-10-17T10:59:21.074Z,83.90
2022-10-17T11:02:05.173Z,81.70
2022-10-17T11:04:50.889Z,80.60
2022-10-17T11:07:43.694Z,79.30
2022-10-17T11:10:23.510Z,79.20
2022-10-17T11:13:04.959Z,80.10
2022-10-17T11:15:54.680Z,80.50
2022-10-17T11:18:43.074Z,80.60
2022-10-17T11:21:36.058Z,79.90
2022-10-17T11:24:21.337Z,80.10
2022-10-17T11:27:01.184Z,79.70
2022-10-17T11:29:33.879Z,79.50
2022-10-17T11:32:31.781Z,80.00
2022-10-17T11:35:07.860Z,79.30
2022-10-17T11:37:40.888Z,79.00
2022-10-17T11:40:29.979Z,78.80
2022-10-17T11:43:02.294Z,77.70
2022-10-17T11:45:35.775Z,78.30
2022-10-17T11:48:09.806Z,77.70
2022-10-17T11:53:31.779Z,76.80
2022-10-17T11:56:00.540Z,75.20
2022-10-17T11:58:39.408Z,75.20
2022-10-17T12:01:16.095Z,75.10
2022-10-17T12:04:06.998Z,74.70
2022-10-17T12:06:55.024Z,74.50
2022-10-17T12:09:50.873Z,74.30
2022-10-17T12:12:27.077Z,73.90
2022-10-17T12:14:55.018Z,73.80
2022-10-17T12:17:40.566Z,74.20
2022-10-17T12:20:25.613Z,73.10
2022-10-17T12:22:53.780Z,73.00
2022-10-17T12:25:24.905Z,71.70
2022-10-17T12:28:03.511Z,72.20
2022-10-17T12:30:30.580Z,71.10
2022-10-17T12:33:06.735Z,70.90
2022-10-17T12:35:36.424Z,70.80
2022-10-17T12:38:16.898Z,70.70
2022-10-17T12:40:48.439Z,70.50
2022-10-17T12:43:15.701Z,70.20
2022-10-17T12:45:52.812Z,69.50
2022-10-17T12:48:34.937Z,69.80
2022-10-17T12:54:17.704Z,69.20
2022-10-17T12:56:49.706Z,69.40
2022-10-17T12:59:28.927Z,69.20
2022-10-17T13:01:59.951Z,69.00
2022-10-17T13:04:27.839Z,69.50
2022-10-17T13:06:58.655Z,69.10
2022-10-17T13:09:38.698Z,69.10
2022-10-17T13:12:16.171Z,69.30
2022-10-17T13:14:43.625Z,70.10
2022-10-17T13:17:30.753Z,69.00
2022-10-17T13:19:58.304Z,68.50
2022-10-17T13:22:28.736Z,69.80
2022-10-17T13:25:16.339Z,69.00
2022-10-17T13:27:43.741Z,67.90
2022-10-17T13:30:32.251Z,67.40
2022-10-17T13:33:00.223Z,67.70
2022-10-17T13:35:58.862Z,68.20
2022-10-17T13:38:28.910Z,67.60
2022-10-17T13:41:05.782Z,67.60
2022-10-17T13:43:43.515Z,67.70
2022-10-17T13:46:36.873Z,66.80
2022-10-17T13:49:31.583Z,66.70
2022-10-17T13:51:59.644Z,66.60
2022-10-17T13:54:34.385Z,66.70
2022-10-17T13:57:02.610Z,66.70
2022-10-17T13:59:41.908Z,66.30
2022-10-17T14:02:17.600Z,65.90
2022-10-17T14:05:15.234Z,66.60
2022-10-17T14:08:10.698Z,67.00
2022-10-17T14:10:40.397Z,67.80
2022-10-17T14:13:18.866Z,68.60
2022-10-17T14:15:46.657Z,68.80
2022-10-17T14:18:34.816Z,69.30
2022-10-17T14:23:50.491Z,71.10
2022-10-17T14:26:23.015Z,71.20
2022-10-17T14:29:11.613Z,71.70
2022-10-17T14:31:38.593Z,72.00
2022-10-17T14:34:05.873Z,72.30
2022-10-17T14:36:39.278Z,72.40
2022-10-17T14:39:22.511Z,72.80
2022-10-17T14:41:50.874Z,73.20
2022-10-17T14:44:22.879Z,73.40
2022-10-17T14:46:54.123Z,73.90
2022-10-17T14:49:45.195Z,73.70
2022-10-17T14:52:15.174Z,74.00
2022-10-17T14:54:46.492Z,73.90
2022-10-17T14:57:25.978Z,74.80
2022-10-17T14:59:55.568Z,74.50
2022-10-17T15:02:27.512Z,75.60
2022-10-17T15:04:54.824Z,75.20
2022-10-17T15:07:22.290Z,75.10
2022-10-17T15:09:50.729Z,76.00
2022-10-17T15:12:20.761Z,75.80
2022-10-17T15:14:48.595Z,76.90
2022-10-17T15:17:21.076Z,79.50
2022-10-17T15:19:48.857Z,77.70
2022-10-17T15:22:16.324Z,77.60
2022-10-17T15:24:43.303Z,78.30
2022-10-17T15:27:31.185Z,78.30
2022-10-17T15:29:58.554Z,79.30
2022-10-17T15:32:25.395Z,80.00
2022-10-17T15:34:52.337Z,80.10
2022-10-17T15:37:22.519Z,79.90
2022-10-17T15:39:53.552Z,81.30
2022-10-17T15:42:28.599Z,81.00
2022-10-17T15:44:56.248Z,81.00
2022-10-17T15:47:31.198Z,80.50
2022-10-17T15:49:59.100Z,82.00
2022-10-17T15:52:26.534Z,81.20
2022-10-17T15:54:54.449Z,81.90
2022-10-17T15:57:24.496Z,82.30
2022-10-17T15:59:52.606Z,82.00
2022-10-17T16:02:21.095Z,81.60
2022-10-17T16:04:49.606Z,82.00
2022-10-17T16:07:17.061Z,82.20
2022-10-17T16:09:43.917Z,82.20
2022-10-17T16:12:28.971Z,83.10
2022-10-17T16:14:56.716Z,83.20
2022-10-17T16:17:23.526Z,83.60
2022-10-17T16:19:50.658Z,84.20
2022-10-17T16:22:32.736Z,84.20
2022-10-17T16:25:07.744Z,84.70
2022-10-17T16:27:34.842Z,86.20
2022-10-17T16:30:01.829Z,86.70
2022-10-17T16:32:29.329Z,87.30
2022-10-17T16:34:56.413Z,88.40
2022-10-17T16:37:23.227Z,89.50
2022-10-17T16:39:52.540Z,89.70
2022-10-17T16:42:20.811Z,90.20
2022-10-17T16:44:48.710Z,90.70
2022-10-17T16:47:16.281Z,90.70
2022-10-17T16:49:45.268Z,91.10
2022-10-17T16:52:13.114Z,91.70
2022-10-17T16:54:40.058Z,91.90
2022-10-17T16:57:07.054Z,92.30
2022-10-17T16:59:33.970Z,93.00
2022-10-17T17:02:00.800Z,93.60
2022-10-17T17:04:27.623Z,94.00
2022-10-17T17:06:54.529Z,94.50
2022-10-17T17:09:21.489Z,94.70
2022-10-17T17:11:48.337Z,95.40
2022-10-17T17:14:15.184Z,95.70
2022-10-17T17:16:43.388Z,95.90
2022-10-17T17:19:15.245Z,96.40
2022-10-17T17:21:47.637Z,96.70
2022-10-17T17:24:15.029Z,97.60
2022-10-17T17:26:41.864Z,97.20
2022-10-17T17:29:09.562Z,97.90
2022-10-17T17:31:38.310Z,97.90
2022-10-17T17:34:05.815Z,97.90
2022-10-17T17:36:35.380Z,98.30
2022-10-17T17:39:06.390Z,98.50
2022-10-17T17:41:33.694Z,99.00
2022-10-17T17:44:01.770Z,99.20
2022-10-17T17:46:28.883Z,99.90
2022-10-17T17:48:56.010Z,99.70
2022-10-17T17:51:28.318Z,99.90
2022-10-17T17:53:57.123Z,99.90
2022-10-17T17:56:26.333Z,99.90
2022-10-17T17:59:01.348Z,99.90
2022-10-17T18:01:31.471Z,99.90
2022-10-17T18:03:59.454Z,99.90
2022-10-17T18:06:27.221Z,99.90
2022-10-17T18:08:58.639Z,99.90
2022-10-17T18:11:27.326Z,99.90
2022-10-17T18:13:59.513Z,99.90
2022-10-17T18:16:29.739Z,99.90
2022-10-17T18:18:57.048Z,99.90
2022-10-17T18:21:24.247Z,99.90
2022-10-17T18:23:51.916Z,99.90
2022-10-17T18:26:19.900Z,99.90
2022-10-17T18:28:46.834Z,99.90
2022-10-17T18:31:22.203Z,99.90
2022-10-17T18:33:51.873Z,99.90
2022-10-17T18:36:19.381Z,99.90
2022-10-17T18:38:46.200Z,99.90
2022-10-17T18:41:16.152Z,99.90
2022-10-17T18:43:45.029Z,99.90
2022-10-17T18:46:18.049Z,99.90
2022-10-17T18:48:46.123Z,99.90
2022-10-17T18:51:14.841Z,99.90
2022-10-17T18:53:43.770Z,99.90
2022-10-17T18:56:11.625Z,99.90
2022-10-17T18:58:39.244Z,99.90
2022-10-17T19:01:09.778Z,99.90
2022-10-17T19:03:37.121Z,99.90
2022-10-17T19:06:09.284Z,99.90
2022-10-17T19:08:37.301Z,99.90
2022-10-17T19:11:12.738Z,99.90
2022-10-17T19:13:40.376Z,99.90
2022-10-17T19:16:08.740Z,99.90
2022-10-17T19:18:36.442Z,99.90
2022-10-17T19:21:04.873Z,99.90
2022-10-17T19:23:32.274Z,99.90
2022-10-17T19:26:07.348Z,99.90
2022-10-17T19:28:35.243Z,99.90
2022-10-17T19:31:02.913Z,99.90
2022-10-17T19:33:31.051Z,99.90
2022-10-17T19:35:59.892Z,99.90
2022-10-17T19:38:26.877Z,99.90
2022-10-17T19:40:53.908Z,99.90
2022-10-17T19:43:20.919Z,99.90
2022-10-17T19:45:55.785Z,99.90
2022-10-17T19:48:23.303Z,99.90
2022-10-17T19:50:50.281Z,99.90
2022-10-17T19:53:17.943Z,99.90
2022-10-17T19:55:45.139Z,99.90
2022-10-17T19:58:12.307Z,99.90
2022-10-17T20:00:39.134Z,99.90
2022-10-17T20:03:05.943Z,99.90
2022-10-17T20:05:32.765Z,99.90
2022-10-17T20:07:59.552Z,99.90
2022-10-17T20:10:26.394Z,99.90
2022-10-17T20:12:53.189Z,99.90
2022-10-17T20:15:19.993Z,99.90
2022-10-17T20:17:46.868Z,99.90
2022-10-17T20:20:13.705Z,99.90
2022-10-17T20:22:40.545Z,99.90
2022-10-17T20:25:08.058Z,99.90
2022-10-17T20:27:34.888Z,99.90
2022-10-17T20:30:02.449Z,99.90
2022-10-17T20:32:30.998Z,99.90
2022-10-17T20:34:58.065Z,99.90
2022-10-17T20:37:25.350Z,99.90
2022-10-17T20:40:10.726Z,99.90
2022-10-17T20:42:38.951Z,99.90
2022-10-17T20:45:06.498Z,99.90
2022-10-17T20:47:46.110Z,99.90
2022-10-17T20:50:14.915Z,99.90
2022-10-17T20:52:41.725Z,99.90
2022-10-17T20:55:08.778Z,99.90
2022-10-17T20:57:35.580Z,99.90
2022-10-17T21:00:02.395Z,99.90
2022-10-17T21:02:29.285Z,99.90
2022-10-17T21:04:56.083Z,99.90
2022-10-17T21:07:25.209Z,99.90
2022-10-17T21:09:52.579Z,99.90
2022-10-17T21:12:30.877Z,99.90
2022-10-17T21:15:04.023Z,99.90
2022-10-17T21:17:30.840Z,99.90
2022-10-17T21:19:58.038Z,99.90
2022-10-17T21:22:25.485Z,99.90
2022-10-17T21:24:52.305Z,99.90
2022-10-17T21:27:19.750Z,99.90
2022-10-17T21:29:47.294Z,99.90
2022-10-17T21:32:25.215Z,99.90
2022-10-17T21:35:00.956Z,99.90
2022-10-17T21:37:27.799Z,99.90
2022-10-17T21:39:54.621Z,99.90
2022-10-17T21:42:21.471Z,99.90
2022-10-17T21:44:48.307Z,99.90
2022-10-17T21:47:15.197Z,99.90
2022-10-17T21:49:42.059Z,99.90
2022-10-17T21:52:08.889Z,99.90
2022-10-17T21:54:35.727Z,99.90
2022-10-17T21:57:02.587Z,99.90
2022-10-17T21:59:31.545Z,99.90
2022-10-17T22:01:58.414Z,99.90
2022-10-17T22:04:25.284Z,99.90
2022-10-17T22:06:53.276Z,99.90
2022-10-17T22:09:23.749Z,99.90
2022-10-17T22:11:56.350Z,99.90
2022-10-17T22:14:26.499Z,99.90
2022-10-17T22:16:53.986Z,99.90
2022-10-17T22:19:24.513Z,99.90
2022-10-17T22:21:52.108Z,99.90
2022-10-17T22:26:48.556Z,99.90
2022-10-17T22:29:15.892Z,99.90
2022-10-17T22:31:43.247Z,99.90
2022-10-17T22:34:12.387Z,99.90
2022-10-17T22:36:39.294Z,99.90
2022-10-17T22:39:06.273Z,99.90
2022-10-17T22:41:33.190Z,99.90
2022-10-17T22:44:00.035Z,99.90
2022-10-17T22:46:26.906Z,99.90
2022-10-17T22:48:53.722Z,99.90
2022-10-17T22:51:20.617Z,99.90
2022-10-17T22:53:47.430Z,99.90
2022-10-17T22:56:16.762Z,99.90
2022-10-17T22:58:44.075Z,99.90
2022-10-17T23:01:16.426Z,99.90
2022-10-17T23:03:43.603Z,99.90
2022-10-17T23:06:10.727Z,99.90
2022-10-17T23:08:38.386Z,99.90
2022-10-17T23:11:05.862Z,99.90
2022-10-17T23:13:32.878Z,99.90
2022-10-17T23:15:59.731Z,99.90
2022-10-17T23:18:27.070Z,99.90
2022-10-17T23:20:54.581Z,99.90
2022-10-17T23:23:22.194Z,99.90
2022-10-17T23:25:49.823Z,99.90
2022-10-17T23:28:17.405Z,99.90
2022-10-17T23:30:44.519Z,99.90
2022-10-17T23:33:12.923Z,99.90
2022-10-17T23:35:40.214Z,99.90
2022-10-17T23:38:07.179Z,99.90
2022-10-17T23:40:35.406Z,99.90
2022-10-17T23:43:02.885Z,99.90
2022-10-17T23:45:33.413Z,99.90
2022-10-17T23:48:03.057Z,99.90
2022-10-17T23:50:29.878Z,99.90
2022-10-17T23:52:56.733Z,99.90
2022-10-17T23:55:23.536Z,99.90
2022-10-17T23:57:50.344Z,99.90
